createdAt,value
2023-12-30T00:02:42.441Z,2.59
2023-12-30T00:05:44.465Z,2.67
2023-12-30T00:08:46.359Z,2.56
2023-12-30T00:11:48.716Z,2.51
2023-12-30T00:14:50.549Z,2.43
2023-12-30T00:17:52.408Z,2.44
2023-12-30T00:20:54.359Z,2.24
2023-12-30T00:23:56.490Z,2.01
2023-12-30T00:26:58.327Z,1.90
2023-12-30T00:30:00.223Z,1.88
2023-12-30T00:33:02.406Z,1.84
2023-12-30T00:36:04.671Z,1.73
2023-12-30T00:39:06.463Z,1.72
2023-12-30T00:42:08.346Z,1.88
2023-12-30T00:45:10.313Z,1.79
2023-12-30T00:48:12.362Z,1.56
2023-12-30T00:51:14.365Z,1.52
2023-12-30T00:54:16.240Z,1.45
2023-12-30T00:57:18.223Z,1.37
2023-12-30T01:00:20.098Z,1.40
2023-12-30T01:03:22.211Z,1.40
2023-12-30T01:06:24.144Z,1.54
2023-12-30T01:09:26.026Z,1.86
2023-12-30T01:12:27.798Z,2.25
2023-12-30T01:15:29.623Z,2.60
2023-12-30T01:18:31.589Z,2.65
2023-12-30T01:21:33.560Z,2.72
2023-12-30T01:24:35.386Z,2.70
2023-12-30T01:27:37.158Z,2.65
2023-12-30T01:30:39.028Z,2.60
2023-12-30T01:33:41.052Z,2.55
2023-12-30T01:36:42.821Z,2.67
2023-12-30T01:39:44.658Z,2.61
2023-12-30T01:42:47.642Z,2.70
2023-12-30T01:45:49.443Z,2.66
2023-12-30T01:48:51.450Z,2.50
2023-12-30T01:51:54.264Z,2.46
2023-12-30T01:54:56.141Z,2.34
2023-12-30T01:57:57.958Z,2.14
2023-12-30T02:01:00.861Z,2.09
2023-12-30T02:04:02.789Z,1.83
2023-12-30T02:07:04.615Z,1.95
2023-12-30T02:10:06.799Z,1.79
2023-12-30T02:13:09.629Z,1.56
2023-12-30T02:16:12.407Z,1.43
2023-12-30T02:19:14.257Z,1.39
2023-12-30T02:22:16.554Z,1.32
2023-12-30T02:25:18.524Z,1.30
2023-12-30T02:28:20.549Z,1.18
2023-12-30T02:31:22.454Z,1.31
2023-12-30T02:34:24.316Z,1.27
2023-12-30T02:37:26.168Z,1.29
2023-12-30T02:40:28.026Z,1.20
2023-12-30T02:43:32.598Z,1.05
2023-12-30T02:46:34.599Z,1.04
2023-12-30T02:49:36.580Z,0.97
2023-12-30T02:52:38.610Z,1.10
2023-12-30T02:55:40.414Z,1.14
2023-12-30T02:58:42.167Z,1.10
2023-12-30T03:01:44.104Z,1.06
2023-12-30T03:04:46.009Z,1.07
2023-12-30T03:07:48.440Z,1.12
2023-12-30T03:10:50.395Z,1.02
2023-12-30T03:13:52.631Z,0.93
2023-12-30T03:16:54.676Z,0.90
2023-12-30T03:19:56.514Z,0.85
2023-12-30T03:22:58.329Z,0.93
2023-12-30T03:26:00.261Z,0.92
2023-12-30T03:29:02.080Z,0.90
2023-12-30T03:32:03.991Z,0.88
2023-12-30T03:35:07.672Z,0.88
2023-12-30T03:38:09.756Z,0.91
2023-12-30T03:41:11.528Z,0.89
2023-12-30T03:44:13.281Z,0.88
2023-12-30T03:47:15.019Z,0.91
2023-12-30T03:50:16.873Z,0.85
2023-12-30T03:53:18.648Z,0.84
2023-12-30T03:56:20.463Z,0.94
2023-12-30T03:59:22.280Z,1.03
2023-12-30T04:02:24.186Z,1.10
2023-12-30T04:05:26.048Z,1.16
2023-12-30T04:08:27.931Z,1.17
2023-12-30T04:11:29.914Z,1.20
2023-12-30T04:14:31.651Z,1.27
2023-12-30T04:17:33.772Z,1.27
2023-12-30T04:20:35.537Z,1.29
2023-12-30T04:23:37.379Z,1.38
2023-12-30T04:26:39.234Z,1.43
2023-12-30T04:29:41.014Z,1.42
2023-12-30T04:32:42.813Z,1.41
2023-12-30T04:35:44.706Z,1.44
2023-12-30T04:38:47.872Z,1.47
2023-12-30T04:41:49.745Z,1.51
2023-12-30T04:44:51.527Z,1.66
2023-12-30T04:47:54.848Z,1.45
2023-12-30T04:50:57.076Z,1.45
2023-12-30T04:53:58.865Z,1.85
2023-12-30T04:57:00.653Z,1.85
2023-12-30T05:00:02.440Z,1.95
2023-12-30T05:03:04.946Z,2.16
2023-12-30T05:06:07.049Z,2.33
2023-12-30T05:09:10.089Z,2.64
2023-12-30T05:12:11.980Z,2.96
2023-12-30T05:15:16.757Z,2.80
2023-12-30T05:18:18.616Z,2.57
2023-12-30T05:21:20.413Z,2.44
2023-12-30T05:24:22.888Z,2.54
2023-12-30T05:27:24.793Z,2.61
2023-12-30T05:30:26.650Z,2.67
2023-12-30T05:33:28.532Z,2.92
2023-12-30T05:36:30.457Z,2.68
2023-12-30T05:39:32.374Z,2.61
2023-12-30T05:42:34.303Z,2.59
2023-12-30T05:45:36.182Z,2.49
2023-12-30T05:48:37.992Z,2.54
2023-12-30T05:51:43.793Z,2.50
2023-12-30T05:54:46.432Z,2.46
2023-12-30T05:57:48.906Z,2.74
2023-12-30T06:00:50.798Z,2.64
2023-12-30T06:03:52.943Z,2.68
2023-12-30T06:06:55.684Z,2.74
2023-12-30T06:09:57.502Z,2.63
2023-12-30T06:13:00.129Z,2.66
2023-12-30T06:16:02.273Z,2.61
2023-12-30T06:19:04.274Z,2.60
2023-12-30T06:22:06.323Z,2.52
2023-12-30T06:25:08.241Z,2.66
2023-12-30T06:28:10.155Z,2.77
2023-12-30T06:31:12.058Z,2.81
2023-12-30T06:34:13.997Z,2.93
2023-12-30T06:37:15.852Z,2.98
2023-12-30T06:40:17.898Z,3.13
2023-12-30T06:43:19.809Z,3.16
2023-12-30T06:46:21.839Z,3.05
2023-12-30T06:49:23.846Z,3.02
2023-12-30T06:52:25.884Z,3.06
2023-12-30T06:55:32.581Z,3.16
2023-12-30T06:58:43.222Z,3.22
2023-12-30T07:01:52.991Z,3.37
2023-12-30T07:04:55.635Z,3.57
2023-12-30T07:08:01.040Z,3.63
2023-12-30T07:11:03.098Z,3.84
2023-12-30T07:14:04.922Z,3.90
2023-12-30T07:17:07.640Z,4.01
2023-12-30T07:20:09.748Z,4.21
2023-12-30T07:23:11.589Z,4.32
2023-12-30T07:26:13.325Z,4.42
2023-12-30T07:29:15.094Z,4.64
2023-12-30T07:32:16.925Z,4.83
2023-12-30T07:35:18.678Z,4.84
2023-12-30T07:38:20.448Z,5.05
2023-12-30T07:41:22.216Z,5.17
2023-12-30T07:44:24.044Z,5.29
2023-12-30T07:47:27.289Z,5.36
2023-12-30T07:50:30.020Z,5.46
2023-12-30T07:53:35.012Z,5.53
2023-12-30T07:56:50.921Z,5.66
2023-12-30T08:00:03.044Z,5.59
2023-12-30T08:03:06.051Z,5.77
2023-12-30T08:06:09.573Z,5.92
2023-12-30T08:09:12.702Z,6.28
2023-12-30T08:12:14.502Z,6.49
2023-12-30T08:15:16.309Z,6.93
2023-12-30T08:18:18.293Z,7.17
2023-12-30T08:21:20.382Z,7.55
2023-12-30T08:24:22.495Z,9.05
2023-12-30T08:27:24.324Z,9.22
2023-12-30T08:30:26.320Z,9.03
2023-12-30T08:33:28.268Z,9.24
2023-12-30T08:36:30.759Z,9.56
2023-12-30T08:39:32.535Z,9.47
2023-12-30T08:42:37.203Z,9.23
2023-12-30T08:45:39.663Z,8.55
2023-12-30T08:48:41.482Z,8.75
2023-12-30T08:51:43.343Z,8.35
2023-12-30T08:54:45.236Z,8.07
2023-12-30T08:57:47.302Z,8.15
2023-12-30T09:00:49.609Z,7.86
2023-12-30T09:03:51.514Z,7.74
2023-12-30T09:06:54.297Z,8.10
2023-12-30T09:09:56.385Z,8.10
2023-12-30T09:12:59.529Z,7.84
2023-12-30T09:16:01.527Z,7.82
2023-12-30T09:19:03.421Z,7.77
2023-12-30T09:22:08.311Z,7.70
2023-12-30T09:25:10.304Z,7.77
2023-12-30T09:28:12.057Z,7.80
2023-12-30T09:31:14.134Z,7.77
2023-12-30T09:34:20.913Z,7.84
2023-12-30T09:37:28.450Z,8.00
2023-12-30T09:40:30.377Z,8.08
2023-12-30T09:43:32.810Z,8.95
2023-12-30T09:46:37.814Z,9.65
2023-12-30T09:49:41.526Z,10.68
2023-12-30T09:52:43.557Z,10.84
2023-12-30T09:55:47.637Z,10.16
2023-12-30T09:58:49.801Z,9.46
2023-12-30T10:01:52.386Z,8.98
2023-12-30T10:04:55.803Z,8.91
2023-12-30T10:07:58.538Z,9.96
2023-12-30T10:11:00.467Z,10.12
2023-12-30T10:14:03.427Z,10.04
2023-12-30T10:17:05.624Z,10.32
2023-12-30T10:20:08.482Z,10.89
2023-12-30T10:23:11.741Z,11.13
2023-12-30T10:26:13.560Z,11.46
2023-12-30T10:29:16.442Z,11.16
2023-12-30T10:32:22.087Z,11.20
2023-12-30T10:35:25.013Z,11.06
2023-12-30T10:38:27.874Z,10.03
2023-12-30T10:41:29.779Z,9.51
2023-12-30T10:44:31.730Z,9.46
2023-12-30T10:47:39.864Z,9.51
2023-12-30T10:50:45.196Z,9.51
2023-12-30T10:53:54.797Z,9.04
2023-12-30T10:57:03.895Z,9.10
2023-12-30T11:00:10.667Z,9.39
2023-12-30T11:03:13.361Z,9.38
2023-12-30T11:06:30.209Z,9.21
2023-12-30T11:09:33.758Z,9.41
2023-12-30T11:12:35.522Z,9.33
2023-12-30T11:15:40.437Z,9.14
2023-12-30T11:18:54.863Z,8.95
2023-12-30T11:22:07.194Z,8.99
2023-12-30T11:25:09.644Z,8.88
2023-12-30T11:28:22.258Z,8.57
2023-12-30T11:31:34.976Z,8.54
2023-12-30T11:34:37.365Z,8.52
2023-12-30T11:37:45.082Z,8.61
2023-12-30T11:40:53.234Z,8.50
2023-12-30T11:43:56.190Z,8.58
2023-12-30T11:46:59.616Z,8.61
2023-12-30T11:50:04.093Z,8.30
2023-12-30T11:53:06.325Z,8.30
2023-12-30T11:56:09.153Z,8.20
2023-12-30T11:59:11.886Z,8.15
2023-12-30T12:02:14.949Z,8.26
2023-12-30T12:05:17.779Z,8.23
2023-12-30T12:08:19.700Z,8.14
2023-12-30T12:11:21.573Z,8.19
2023-12-30T12:14:23.331Z,8.24
2023-12-30T12:17:25.272Z,8.15
2023-12-30T12:20:27.675Z,8.21
2023-12-30T12:23:29.701Z,8.06
2023-12-30T12:26:33.179Z,8.11
2023-12-30T12:29:45.866Z,8.06
2023-12-30T12:32:47.858Z,8.01
2023-12-30T12:35:49.812Z,7.90
2023-12-30T12:38:51.616Z,7.69
2023-12-30T12:41:53.501Z,7.65
2023-12-30T12:44:55.340Z,7.58
2023-12-30T12:47:57.301Z,7.55
2023-12-30T12:50:59.289Z,7.51
2023-12-30T12:54:01.121Z,7.38
2023-12-30T12:57:03.014Z,7.39
2023-12-30T13:00:09.754Z,7.32
2023-12-30T13:03:12.235Z,7.20
2023-12-30T13:06:14.564Z,7.18
2023-12-30T13:09:34.327Z,7.17
2023-12-30T13:12:36.074Z,7.14
2023-12-30T13:15:38.753Z,7.13
2023-12-30T13:18:40.851Z,7.13
2023-12-30T13:21:43.104Z,7.00
2023-12-30T13:24:46.307Z,7.01
2023-12-30T13:27:48.435Z,7.01
2023-12-30T13:30:50.498Z,7.03
2023-12-30T13:33:55.645Z,6.98
2023-12-30T13:37:01.596Z,6.97
2023-12-30T13:40:09.758Z,6.89
2023-12-30T13:43:12.133Z,6.77
2023-12-30T13:46:34.032Z,6.67
2023-12-30T13:50:08.617Z,6.57
2023-12-30T13:53:11.232Z,6.53
2023-12-30T13:56:20.679Z,6.60
2023-12-30T13:59:24.588Z,6.55
2023-12-30T14:02:27.156Z,6.48
2023-12-30T14:05:32.688Z,6.44
2023-12-30T14:08:43.337Z,6.23
2023-12-30T14:11:50.370Z,6.11
2023-12-30T14:15:07.190Z,6.15
2023-12-30T14:18:09.163Z,6.16
2023-12-30T14:21:11.718Z,6.01
2023-12-30T14:24:20.040Z,5.97
2023-12-30T14:27:22.203Z,5.82
2023-12-30T14:30:24.757Z,5.67
2023-12-30T14:33:26.677Z,5.73
2023-12-30T14:36:28.639Z,5.70
2023-12-30T14:39:30.518Z,5.74
2023-12-30T14:42:32.502Z,5.63
2023-12-30T14:45:34.335Z,5.56
2023-12-30T14:48:36.482Z,5.55
2023-12-30T14:51:38.386Z,5.31
2023-12-30T14:54:40.723Z,5.20
2023-12-30T14:57:42.777Z,5.10
2023-12-30T15:00:44.578Z,5.08
2023-12-30T15:03:46.468Z,5.06
2023-12-30T15:06:48.652Z,5.11
2023-12-30T15:09:50.950Z,5.10
2023-12-30T15:12:53.711Z,5.03
2023-12-30T15:15:55.661Z,4.84
2023-12-30T15:18:57.798Z,4.79
2023-12-30T15:21:59.724Z,4.63
2023-12-30T15:25:05.160Z,4.77
2023-12-30T15:28:08.980Z,4.92
2023-12-30T15:31:11.384Z,4.99
2023-12-30T15:34:13.475Z,5.04
2023-12-30T15:37:15.761Z,5.05
2023-12-30T15:40:17.844Z,5.06
2023-12-30T15:43:20.081Z,4.97
2023-12-30T15:46:22.070Z,4.81
2023-12-30T15:49:24.073Z,4.75
2023-12-30T15:52:26.829Z,4.76
2023-12-30T15:55:29.496Z,4.57
2023-12-30T15:58:31.476Z,4.59
2023-12-30T16:01:33.437Z,4.65
2023-12-30T16:04:35.537Z,4.72
2023-12-30T16:07:37.471Z,4.77
2023-12-30T16:10:39.502Z,4.84
2023-12-30T16:13:41.498Z,4.78
2023-12-30T16:16:46.483Z,4.83
2023-12-30T16:19:49.362Z,4.78
2023-12-30T16:22:51.182Z,4.82
2023-12-30T16:25:53.081Z,5.00
2023-12-30T16:28:55.278Z,5.19
2023-12-30T16:31:58.074Z,5.14
2023-12-30T16:35:00.032Z,5.05
2023-12-30T16:38:01.996Z,4.88
2023-12-30T16:41:03.956Z,4.86
2023-12-30T16:44:05.889Z,4.79
2023-12-30T16:47:08.062Z,4.87
2023-12-30T16:50:10.587Z,4.79
2023-12-30T16:53:12.683Z,4.95
2023-12-30T16:56:16.693Z,4.81
2023-12-30T16:59:18.516Z,4.78
2023-12-30T17:02:20.372Z,4.79
2023-12-30T17:05:22.226Z,4.84
2023-12-30T17:08:24.163Z,4.93
2023-12-30T17:11:25.945Z,4.95
2023-12-30T17:14:27.797Z,5.09
2023-12-30T17:17:29.661Z,4.99
2023-12-30T17:20:34.758Z,4.95
2023-12-30T17:23:37.146Z,5.12
2023-12-30T17:26:38.945Z,5.01
2023-12-30T17:29:40.820Z,5.00
2023-12-30T17:32:42.674Z,4.98
2023-12-30T17:35:44.535Z,4.95
2023-12-30T17:38:46.380Z,4.88
2023-12-30T17:41:48.111Z,4.97
2023-12-30T17:44:50.773Z,4.88
2023-12-30T17:47:54.249Z,4.87
2023-12-30T17:50:56.044Z,4.77
2023-12-30T17:53:57.901Z,4.77
2023-12-30T17:57:00.050Z,4.64
2023-12-30T18:00:02.103Z,4.50
2023-12-30T18:03:05.432Z,4.66
2023-12-30T18:06:07.624Z,4.74
2023-12-30T18:09:12.319Z,4.73
2023-12-30T18:12:14.195Z,4.81
2023-12-30T18:15:16.148Z,4.73
2023-12-30T18:18:18.131Z,4.69
2023-12-30T18:21:22.068Z,4.60
2023-12-30T18:24:23.921Z,4.62
2023-12-30T18:27:25.938Z,4.67
2023-12-30T18:30:28.126Z,4.79
2023-12-30T18:33:30.225Z,4.79
2023-12-30T18:36:32.100Z,4.68
2023-12-30T18:39:34.958Z,4.83
2023-12-30T18:42:37.379Z,4.83
2023-12-30T18:45:39.747Z,4.90
2023-12-30T18:48:41.592Z,4.82
2023-12-30T18:51:43.611Z,4.94
2023-12-30T18:54:45.466Z,4.80
2023-12-30T18:57:47.482Z,4.81
2023-12-30T19:00:50.688Z,4.77
2023-12-30T19:03:56.705Z,4.86
2023-12-30T19:06:58.647Z,4.64
2023-12-30T19:10:00.524Z,4.43
2023-12-30T19:13:02.487Z,4.38
2023-12-30T19:16:04.947Z,4.21
2023-12-30T19:19:06.973Z,4.12
2023-12-30T19:22:10.212Z,4.08
2023-12-30T19:25:12.795Z,4.13
2023-12-30T19:28:15.108Z,4.19
2023-12-30T19:31:17.136Z,4.27
2023-12-30T19:34:19.977Z,4.49
2023-12-30T19:37:22.747Z,4.52
2023-12-30T19:40:24.631Z,4.39
2023-12-30T19:43:26.492Z,4.42
2023-12-30T19:46:30.113Z,4.38
2023-12-30T19:49:33.354Z,4.40
2023-12-30T19:52:35.150Z,4.52
2023-12-30T19:55:37.083Z,4.27
2023-12-30T19:58:39.125Z,4.09
2023-12-30T20:01:42.031Z,4.30
2023-12-30T20:04:44.067Z,4.34
2023-12-30T20:07:46.124Z,4.38
2023-12-30T20:10:49.034Z,4.25
2023-12-30T20:13:50.920Z,4.26
2023-12-30T20:16:52.765Z,4.24
2023-12-30T20:19:55.181Z,4.20
2023-12-30T20:22:58.302Z,4.08
2023-12-30T20:26:00.783Z,3.92
2023-12-30T20:29:02.756Z,3.89
2023-12-30T20:32:04.927Z,3.83
2023-12-30T20:35:07.038Z,3.81
2023-12-30T20:38:09.806Z,3.89
2023-12-30T20:41:11.759Z,3.85
2023-12-30T20:44:13.540Z,3.87
2023-12-30T20:47:15.390Z,3.93
2023-12-30T20:50:17.202Z,3.81
2023-12-30T20:53:19.095Z,3.70
2023-12-30T20:56:21.043Z,3.68
2023-12-30T20:59:23.878Z,3.63
2023-12-30T21:02:25.791Z,3.61
2023-12-30T21:05:28.111Z,3.48
2023-12-30T21:08:32.101Z,3.41
2023-12-30T21:11:36.913Z,3.42
2023-12-30T21:14:40.546Z,3.63
2023-12-30T21:17:42.408Z,3.74
2023-12-30T21:20:44.280Z,3.61
2023-12-30T21:23:48.521Z,3.53
2023-12-30T21:26:50.323Z,3.39
2023-12-30T21:29:52.114Z,3.19
2023-12-30T21:32:55.454Z,3.44
2023-12-30T21:36:00.186Z,3.17
2023-12-30T21:39:02.154Z,3.06
2023-12-30T21:42:04.212Z,2.82
2023-12-30T21:45:06.961Z,2.70
2023-12-30T21:48:10.394Z,2.52
2023-12-30T21:51:14.437Z,2.39
2023-12-30T21:54:20.469Z,2.34
2023-12-30T21:57:22.775Z,2.36
2023-12-30T22:00:24.499Z,2.31
2023-12-30T22:03:26.322Z,2.23
2023-12-30T22:06:28.450Z,2.17
2023-12-30T22:09:30.363Z,2.20
2023-12-30T22:12:32.402Z,2.39
2023-12-30T22:15:34.242Z,2.74
2023-12-30T22:18:36.563Z,3.82
2023-12-30T22:21:38.443Z,3.74
2023-12-30T22:24:40.240Z,4.36
2023-12-30T22:27:42.157Z,4.51
2023-12-30T22:30:44.037Z,4.75
2023-12-30T22:33:45.912Z,4.84
2023-12-30T22:36:48.059Z,4.69
2023-12-30T22:39:50.015Z,4.63
2023-12-30T22:42:51.988Z,4.53
2023-12-30T22:45:53.710Z,4.49
2023-12-30T22:48:55.605Z,4.57
2023-12-30T22:51:57.526Z,4.65
2023-12-30T22:55:00.054Z,4.79
2023-12-30T22:58:01.773Z,4.73
2023-12-30T23:01:05.897Z,4.75
2023-12-30T23:04:07.782Z,4.65
2023-12-30T23:07:09.786Z,4.56
2023-12-30T23:10:12.909Z,4.69
2023-12-30T23:13:14.892Z,4.65
2023-12-30T23:16:16.761Z,4.60
2023-12-30T23:19:18.616Z,4.61
2023-12-30T23:22:20.536Z,4.53
2023-12-30T23:25:22.369Z,4.39
2023-12-30T23:28:24.452Z,4.38
2023-12-30T23:31:26.243Z,4.41
2023-12-30T23:34:39.110Z,4.53
2023-12-30T23:37:47.614Z,4.38
2023-12-30T23:40:49.469Z,4.35
2023-12-30T23:43:52.509Z,4.44
2023-12-30T23:46:54.271Z,4.40
2023-12-30T23:49:56.149Z,4.30
2023-12-30T23:52:58.003Z,4.21
2023-12-30T23:56:03.072Z,4.30
2023-12-30T23:59:04.883Z,4.28
